createdAt,value
2019-04-05T00:00:12.965Z,96.11
2019-04-05T00:01:12.959Z,96.31
2019-04-05T00:02:12.932Z,96.36
2019-04-05T00:03:12.921Z,96.56
2019-04-05T00:04:12.912Z,96.01
2019-04-05T00:05:12.911Z,96.42
2019-04-05T00:06:12.883Z,96.01
2019-04-05T00:07:12.896Z,96.11
2019-04-05T00:08:12.861Z,96.21
2019-04-05T00:09:12.856Z,95.95
2019-04-05T00:10:12.858Z,96.31
2019-04-05T00:11:12.831Z,96.88
2019-04-05T00:12:12.820Z,96.52
2019-04-05T00:13:12.842Z,96.67
2019-04-05T00:14:12.800Z,96.01
2019-04-05T00:15:15.618Z,96.21
2019-04-05T00:16:12.775Z,96.11
2019-04-05T00:17:12.769Z,96.01
2019-04-05T00:18:12.756Z,96.11
2019-04-05T00:19:12.792Z,96.42
2019-04-05T00:20:12.728Z,96.31
2019-04-05T00:21:12.715Z,96.01
2019-04-05T00:22:12.707Z,96.31
2019-04-05T00:23:12.696Z,95.90
2019-04-05T00:24:12.681Z,95.90
2019-04-05T00:25:12.718Z,96.11
2019-04-05T00:26:12.663Z,96.31
2019-04-05T00:27:12.647Z,96.11
2019-04-05T00:28:12.638Z,96.21
2019-04-05T00:29:12.632Z,96.31
2019-04-05T00:30:12.623Z,96.31
2019-04-05T00:31:12.668Z,95.39
2019-04-05T00:32:12.590Z,95.49
2019-04-05T00:33:12.583Z,95.90
2019-04-05T00:34:12.572Z,96.21
2019-04-05T00:35:12.559Z,96.31
2019-04-05T00:36:12.552Z,95.80
2019-04-05T00:37:12.589Z,95.49
2019-04-05T00:38:12.531Z,95.49
2019-04-05T00:39:12.572Z,95.59
2019-04-05T00:40:12.506Z,96.42
2019-04-05T00:41:12.490Z,95.43
2019-04-05T00:42:12.482Z,95.80
2019-04-05T00:43:12.506Z,96.36
2019-04-05T00:44:12.460Z,96.52
2019-04-05T00:45:12.447Z,96.31
2019-04-05T00:46:12.442Z,95.90
2019-04-05T00:47:12.425Z,96.21
2019-04-05T00:48:12.418Z,96.11
2019-04-05T00:49:12.448Z,96.47
2019-04-05T00:50:12.394Z,96.01
2019-04-05T00:51:12.379Z,96.05
2019-04-05T00:52:12.374Z,96.31
2019-04-05T00:53:12.360Z,96.36
2019-04-05T00:54:12.369Z,96.15
2019-04-05T00:55:12.359Z,96.21
2019-04-05T00:56:12.323Z,96.47
2019-04-05T00:57:12.311Z,96.05
2019-04-05T00:58:12.298Z,96.26
2019-04-05T00:59:12.290Z,96.36
2019-04-05T01:00:12.301Z,96.36
2019-04-05T01:01:12.307Z,96.15
2019-04-05T01:02:12.255Z,95.84
2019-04-05T01:03:13.292Z,96.15
2019-04-05T01:04:12.236Z,95.90
2019-04-05T01:05:12.285Z,96.15
2019-04-05T01:06:12.228Z,96.31
2019-04-05T01:07:12.233Z,96.36
2019-04-05T01:08:12.194Z,96.31
2019-04-05T01:09:12.178Z,96.31
2019-04-05T01:10:12.168Z,96.11
2019-04-05T01:11:12.156Z,96.11
2019-04-05T01:12:12.198Z,96.21
2019-04-05T01:13:12.130Z,96.31
2019-04-05T01:14:12.123Z,96.31
2019-04-05T01:15:12.135Z,95.90
2019-04-05T01:16:12.095Z,96.21
2019-04-05T01:17:24.211Z,96.11
2019-04-05T01:18:13.126Z,95.80
2019-04-05T01:19:12.067Z,95.90
2019-04-05T01:20:12.053Z,95.70
2019-04-05T01:21:12.048Z,95.90
2019-04-05T01:22:12.030Z,96.21
2019-04-05T01:23:12.041Z,95.80
2019-04-05T01:24:12.026Z,95.70
2019-04-05T01:25:11.999Z,96.42
2019-04-05T01:26:11.990Z,95.59
2019-04-05T01:27:11.975Z,95.59
2019-04-05T01:28:11.964Z,95.39
2019-04-05T01:29:11.954Z,96.52
2019-04-05T01:30:11.989Z,95.39
2019-04-05T01:31:11.928Z,95.90
2019-04-05T01:32:11.917Z,95.90
2019-04-05T01:33:11.906Z,95.28
2019-04-05T01:34:11.893Z,95.70
2019-04-05T01:35:11.912Z,95.70
2019-04-05T01:36:11.897Z,95.59
2019-04-05T01:37:11.863Z,95.70
2019-04-05T01:38:11.849Z,95.70
2019-04-05T01:39:11.837Z,95.49
2019-04-05T01:40:11.829Z,95.59
2019-04-05T01:41:11.837Z,95.90
2019-04-05T01:42:11.857Z,95.59
2019-04-05T01:43:11.793Z,96.01
2019-04-05T01:44:11.787Z,95.90
2019-04-05T01:45:11.774Z,95.90
2019-04-05T01:46:11.759Z,95.84
2019-04-05T01:47:11.767Z,95.84
2019-04-05T01:48:11.770Z,96.01
2019-04-05T01:49:11.727Z,95.90
2019-04-05T01:50:11.715Z,95.64
2019-04-05T01:51:11.706Z,95.80
2019-04-05T01:52:11.693Z,95.43
2019-04-05T01:53:11.696Z,95.49
2019-04-05T01:54:11.709Z,95.70
2019-04-05T01:55:11.661Z,96.42
2019-04-05T01:56:11.647Z,96.01
2019-04-05T01:57:11.637Z,96.42
2019-04-05T01:58:11.631Z,96.52
2019-04-05T01:59:11.625Z,95.59
2019-04-05T02:00:11.629Z,95.28
2019-04-05T02:01:11.594Z,96.42
2019-04-05T02:02:11.583Z,95.49
2019-04-05T02:03:11.569Z,95.59
2019-04-05T02:04:11.566Z,96.21
2019-04-05T02:05:11.560Z,96.42
2019-04-05T02:06:11.566Z,95.49
2019-04-05T02:08:06.618Z,95.59
2019-04-05T02:09:06.608Z,95.70
2019-04-05T02:10:06.606Z,95.90
2019-04-05T02:11:06.594Z,95.28
2019-04-05T02:12:06.577Z,95.59
2019-04-05T02:13:06.588Z,96.01
2019-04-05T02:14:06.559Z,95.70
2019-04-05T02:15:06.543Z,96.01
2019-04-05T02:16:07.048Z,96.21
2019-04-05T02:17:06.517Z,95.28
2019-04-05T02:18:06.506Z,95.39
2019-04-05T02:19:06.517Z,96.01
2019-04-05T02:20:06.493Z,96.21
2019-04-05T02:21:06.472Z,95.90
2019-04-05T02:22:06.463Z,95.32
2019-04-05T02:23:06.451Z,95.59
2019-04-05T02:24:06.441Z,95.32
2019-04-05T02:25:06.461Z,96.01
2019-04-05T02:26:06.424Z,96.42
2019-04-05T02:27:06.419Z,95.43
2019-04-05T02:28:06.405Z,95.74
2019-04-05T02:29:06.391Z,95.53
2019-04-05T02:30:06.381Z,96.36
2019-04-05T02:31:06.377Z,96.01
2019-04-05T02:32:06.352Z,96.26
2019-04-05T02:33:06.363Z,96.01
2019-04-05T02:34:06.347Z,95.84
2019-04-05T02:35:06.325Z,95.53
2019-04-05T02:36:06.324Z,95.74
2019-04-05T02:37:06.305Z,96.36
2019-04-05T02:38:06.287Z,96.05
2019-04-05T02:39:06.275Z,95.70
2019-04-05T02:40:06.277Z,95.95
2019-04-05T02:41:06.255Z,96.26
2019-04-05T02:42:06.255Z,96.26
2019-04-05T02:43:06.249Z,96.36
2019-04-05T02:44:06.228Z,96.67
2019-04-05T02:45:06.209Z,96.15
2019-04-05T02:46:22.164Z,96.56
2019-04-05T02:47:07.189Z,95.95
2019-04-05T02:48:06.179Z,95.95
2019-04-05T02:49:06.166Z,96.36
2019-04-05T02:50:06.155Z,96.56
2019-04-05T02:51:06.156Z,96.56
2019-04-05T02:52:06.156Z,96.77
2019-04-05T02:53:06.134Z,96.56
2019-04-05T02:54:06.114Z,96.77
2019-04-05T02:55:06.106Z,96.52
2019-04-05T02:56:06.115Z,96.52
2019-04-05T02:57:06.089Z,96.26
2019-04-05T02:58:06.089Z,96.21
2019-04-05T02:59:06.060Z,96.62
2019-04-05T03:00:06.067Z,96.83
2019-04-05T03:01:06.041Z,96.62
2019-04-05T03:02:06.043Z,96.52
2019-04-05T03:03:06.081Z,96.42
2019-04-05T03:04:06.008Z,96.31
2019-04-05T03:05:06.002Z,96.26
2019-04-05T03:06:05.989Z,96.11
2019-04-05T03:07:05.977Z,96.15
2019-04-05T03:08:05.987Z,96.36
2019-04-05T03:09:05.975Z,96.36
2019-04-05T03:10:05.941Z,95.95
2019-04-05T03:11:05.931Z,96.26
2019-04-05T03:12:05.911Z,95.95
2019-04-05T03:13:05.919Z,96.36
2019-04-05T03:14:05.952Z,95.84
2019-04-05T03:15:05.884Z,95.95
2019-04-05T03:16:05.890Z,96.15
2019-04-05T03:17:05.860Z,95.84
2019-04-05T03:18:05.851Z,96.15
2019-04-05T03:19:05.851Z,96.26
2019-04-05T03:20:05.850Z,96.36
2019-04-05T03:21:05.820Z,96.47
2019-04-05T03:22:05.861Z,96.77
2019-04-05T03:23:05.822Z,96.67
2019-04-05T03:24:05.854Z,96.56
2019-04-05T03:25:05.796Z,96.88
2019-04-05T03:26:05.801Z,96.47
2019-04-05T03:27:05.771Z,96.56
2019-04-05T03:28:05.780Z,96.67
2019-04-05T03:29:05.724Z,96.56
2019-04-05T03:30:05.825Z,96.56
2019-04-05T03:31:05.732Z,96.47
2019-04-05T03:32:05.704Z,96.88
2019-04-05T03:33:05.714Z,96.77
2019-04-05T03:34:05.679Z,96.52
2019-04-05T03:35:05.675Z,96.88
2019-04-05T03:36:05.678Z,96.77
2019-04-05T03:37:05.667Z,96.42
2019-04-05T03:38:05.644Z,96.15
2019-04-05T03:39:05.623Z,95.95
2019-04-05T03:40:05.601Z,96.36
2019-04-05T03:41:05.620Z,96.56
2019-04-05T03:42:05.603Z,96.67
2019-04-05T03:43:05.605Z,95.84
2019-04-05T03:44:05.562Z,95.74
2019-04-05T03:45:05.575Z,96.56
2019-04-05T03:46:05.566Z,96.56
2019-04-05T03:47:05.525Z,96.56
2019-04-05T03:48:05.530Z,96.56
2019-04-05T03:49:05.539Z,96.11
2019-04-05T03:50:05.532Z,96.36
2019-04-05T03:51:05.498Z,96.31
2019-04-05T03:52:05.505Z,96.56
2019-04-05T03:53:05.541Z,95.95
2019-04-05T03:54:05.458Z,96.42
2019-04-05T03:55:05.458Z,96.01
2019-04-05T03:56:05.455Z,96.26
2019-04-05T03:57:05.421Z,96.26
2019-04-05T03:58:05.424Z,95.70
2019-04-05T03:59:05.453Z,96.05
2019-04-05T04:00:05.390Z,95.74
2019-04-05T04:01:05.384Z,96.26
2019-04-05T04:02:05.361Z,96.15
2019-04-05T04:03:05.353Z,96.26
2019-04-05T04:04:05.398Z,96.26
2019-04-05T04:05:05.339Z,96.26
2019-04-05T04:06:05.321Z,96.88
2019-04-05T04:07:05.341Z,95.84
2019-04-05T04:08:05.301Z,96.67
2019-04-05T04:09:05.305Z,96.36
2019-04-05T04:10:05.277Z,96.31
2019-04-05T04:11:05.264Z,96.36
2019-04-05T04:12:05.283Z,96.01
2019-04-05T04:13:05.237Z,96.01
2019-04-05T04:14:05.255Z,96.11
2019-04-05T04:15:05.224Z,96.21
2019-04-05T04:16:05.208Z,96.31
2019-04-05T04:17:12.696Z,96.11
2019-04-05T04:18:06.189Z,96.11
2019-04-05T04:19:05.178Z,96.56
2019-04-05T04:20:05.183Z,95.90
2019-04-05T04:21:05.153Z,96.67
2019-04-05T04:22:05.144Z,96.42
2019-04-05T04:23:05.133Z,96.15
2019-04-05T04:24:05.132Z,96.11
2019-04-05T04:25:05.128Z,96.21
2019-04-05T04:26:05.101Z,96.31
2019-04-05T04:27:05.088Z,95.90
2019-04-05T04:28:05.072Z,96.36
2019-04-05T04:29:05.074Z,95.90
2019-04-05T04:30:05.069Z,96.11
2019-04-05T04:31:05.099Z,95.90
2019-04-05T04:32:05.045Z,95.95
2019-04-05T04:33:05.027Z,96.11
2019-04-05T04:34:05.034Z,95.80
2019-04-05T04:35:05.000Z,95.90
2019-04-05T04:36:05.017Z,95.90
2019-04-05T04:37:04.984Z,95.90
2019-04-05T04:38:04.961Z,95.90
2019-04-05T04:39:04.966Z,95.90
2019-04-05T04:40:04.950Z,96.11
2019-04-05T04:41:04.935Z,96.31
2019-04-05T04:42:04.963Z,96.21
2019-04-05T04:43:04.911Z,96.31
2019-04-05T04:44:04.930Z,96.31
2019-04-05T04:45:11.849Z,96.11
2019-04-05T04:46:05.884Z,96.31
2019-04-05T04:47:04.887Z,96.52
2019-04-05T04:48:04.886Z,96.42
2019-04-05T04:49:04.858Z,96.31
2019-04-05T04:50:04.828Z,96.62
2019-04-05T04:51:04.830Z,96.11
2019-04-05T04:52:04.850Z,96.21
2019-04-05T04:53:04.806Z,96.21
2019-04-05T04:54:04.837Z,95.90
2019-04-05T04:55:04.775Z,96.11
2019-04-05T04:56:04.774Z,96.27
2019-04-05T04:57:04.750Z,95.76
2019-04-05T04:58:04.752Z,95.80
2019-04-05T04:59:04.750Z,95.90
2019-04-05T05:00:04.756Z,96.48
2019-04-05T05:01:04.719Z,96.42
2019-04-05T05:02:04.737Z,96.73
2019-04-05T05:03:04.746Z,95.86
2019-04-05T05:04:04.692Z,95.70
2019-04-05T05:05:04.673Z,95.80
2019-04-05T05:06:04.657Z,96.21
2019-04-05T05:07:04.688Z,95.70
2019-04-05T05:08:04.631Z,96.62
2019-04-05T05:09:04.658Z,96.52
2019-04-05T05:10:04.630Z,95.96
2019-04-05T05:11:13.956Z,95.96
2019-04-05T05:12:05.687Z,95.96
2019-04-05T05:13:04.581Z,95.76
2019-04-05T05:14:04.567Z,95.65
2019-04-05T05:15:04.550Z,96.27
2019-04-05T05:16:04.545Z,95.80
2019-04-05T05:17:04.552Z,95.65
2019-04-05T05:18:04.534Z,96.01
2019-04-05T05:19:04.511Z,95.76
2019-04-05T05:20:04.497Z,94.87
2019-04-05T05:21:04.487Z,95.49
2019-04-05T05:22:04.478Z,95.86
2019-04-05T05:23:04.460Z,95.55
2019-04-05T05:24:04.534Z,95.65
2019-04-05T05:25:04.480Z,95.76
2019-04-05T05:26:04.434Z,95.76
2019-04-05T05:27:04.443Z,95.65
2019-04-05T05:28:04.419Z,95.86
2019-04-05T05:29:04.408Z,96.37
2019-04-05T05:30:04.395Z,95.45
2019-04-05T05:31:04.387Z,95.90
2019-04-05T05:32:04.367Z,95.90
2019-04-05T05:33:04.353Z,95.80
2019-04-05T05:34:04.351Z,95.45
2019-04-05T05:35:04.351Z,95.70
2019-04-05T05:36:04.317Z,96.01
2019-04-05T05:37:04.334Z,95.34
2019-04-05T05:38:04.299Z,95.24
2019-04-05T05:39:04.287Z,95.65
2019-04-05T05:40:04.273Z,95.45
2019-04-05T05:41:04.280Z,96.06
2019-04-05T05:42:04.257Z,95.86
2019-04-05T05:43:04.242Z,95.65
2019-04-05T05:44:04.232Z,95.55
2019-04-05T05:45:04.219Z,96.27
2019-04-05T05:46:04.206Z,95.34
2019-04-05T05:47:04.210Z,96.17
2019-04-05T05:48:04.188Z,95.34
2019-04-05T05:49:04.177Z,95.55
2019-04-05T05:50:04.171Z,96.27
2019-04-05T05:51:04.156Z,96.37
2019-04-05T05:52:04.163Z,95.45
2019-04-05T05:53:04.156Z,96.48
2019-04-05T05:54:04.172Z,95.45
2019-04-05T05:55:04.153Z,95.55
2019-04-05T05:56:04.104Z,95.55
2019-04-05T05:57:04.089Z,95.34
2019-04-05T05:58:04.134Z,96.48
2019-04-05T05:59:04.078Z,96.06
2019-04-05T06:00:04.065Z,96.58
2019-04-05T06:01:04.047Z,96.06
2019-04-05T06:02:07.048Z,95.45
2019-04-05T06:03:06.222Z,95.34
2019-04-05T06:04:04.045Z,95.14
2019-04-05T06:05:04.002Z,95.65
2019-04-05T06:06:04.885Z,95.86
2019-04-05T06:07:03.977Z,95.14
2019-04-05T06:08:03.972Z,95.65
2019-04-05T06:09:04.027Z,95.24
2019-04-05T06:10:03.946Z,95.76
2019-04-05T06:11:03.934Z,96.27
2019-04-05T06:12:03.974Z,96.12
2019-04-05T06:13:06.629Z,95.30
2019-04-05T06:14:03.901Z,95.34
2019-04-05T06:15:03.910Z,96.06
2019-04-05T06:16:03.875Z,95.30
2019-04-05T06:17:03.868Z,96.33
2019-04-05T06:18:05.073Z,96.17
2019-04-05T06:19:03.845Z,96.02
2019-04-05T06:20:03.831Z,95.61
2019-04-05T06:21:03.850Z,96.44
2019-04-05T06:22:03.810Z,95.20
2019-04-05T06:23:03.798Z,96.12
2019-04-05T06:24:05.366Z,95.71
2019-04-05T06:25:03.806Z,96.23
2019-04-05T06:26:03.768Z,96.12
2019-04-05T06:27:03.777Z,96.02
2019-04-05T06:28:03.759Z,95.92
2019-04-05T06:29:03.756Z,96.02
2019-04-05T06:30:03.734Z,96.02
2019-04-05T06:31:03.707Z,95.71
2019-04-05T06:32:03.714Z,95.30
2019-04-05T06:33:03.704Z,95.40
2019-04-05T06:34:03.694Z,95.71
2019-04-05T06:35:03.709Z,95.71
2019-04-05T06:36:03.666Z,96.18
2019-04-05T06:37:03.644Z,95.20
2019-04-05T06:38:03.634Z,95.40
2019-04-05T06:39:03.624Z,96.12
2019-04-05T06:40:03.654Z,95.81
2019-04-05T06:41:03.615Z,96.33
2019-04-05T06:42:03.588Z,95.92
2019-04-05T06:43:06.529Z,95.50
2019-04-05T06:44:03.563Z,96.33
2019-04-05T06:45:03.563Z,95.20
2019-04-05T06:46:03.722Z,95.50
2019-04-05T06:47:03.535Z,96.44
2019-04-05T06:48:03.525Z,95.20
2019-04-05T06:49:03.511Z,95.92
2019-04-05T06:50:03.501Z,95.20
2019-04-05T06:51:03.491Z,96.02
2019-04-05T06:52:03.533Z,95.92
2019-04-05T06:53:03.467Z,95.81
2019-04-05T06:54:03.561Z,96.33
2019-04-05T06:55:03.444Z,96.53
2019-04-05T06:56:03.437Z,96.02
2019-04-05T06:57:03.430Z,95.81
2019-04-05T06:58:03.458Z,95.92
2019-04-05T06:59:03.400Z,96.23
2019-04-05T07:00:03.394Z,95.30
2019-04-05T07:01:03.379Z,95.30
2019-04-05T07:02:03.368Z,95.92
2019-04-05T07:03:03.373Z,95.40
2019-04-05T07:04:03.364Z,95.56
2019-04-05T07:05:03.332Z,96.08
2019-04-05T07:06:03.321Z,96.12
2019-04-05T07:07:03.308Z,95.71
2019-04-05T07:08:03.303Z,96.28
2019-04-05T07:09:03.309Z,96.23
2019-04-05T07:10:03.292Z,96.12
2019-04-05T07:11:03.274Z,94.95
2019-04-05T07:12:03.256Z,94.99
2019-04-05T07:13:03.377Z,95.61
2019-04-05T07:14:03.235Z,96.44
2019-04-05T07:15:03.222Z,95.67
2019-04-05T07:16:03.214Z,95.77
2019-04-05T07:17:03.214Z,94.99
2019-04-05T07:18:03.190Z,95.20
2019-04-05T07:19:03.188Z,96.08
2019-04-05T07:20:03.168Z,96.12
2019-04-05T07:21:03.157Z,95.71
2019-04-05T07:22:03.146Z,95.40
2019-04-05T07:23:03.134Z,95.87
2019-04-05T07:24:03.155Z,95.71
2019-04-05T07:25:03.114Z,95.61
2019-04-05T07:26:03.105Z,95.81
2019-04-05T07:27:03.091Z,96.44
2019-04-05T07:28:03.080Z,94.95
2019-04-05T07:29:03.067Z,95.77
2019-04-05T07:30:03.082Z,95.40
2019-04-05T07:31:03.065Z,95.87
2019-04-05T07:32:03.039Z,95.77
2019-04-05T07:33:03.026Z,95.25
2019-04-05T07:34:03.017Z,95.46
2019-04-05T07:35:03.001Z,95.56
2019-04-05T07:36:03.594Z,95.67
2019-04-05T07:37:03.021Z,96.08
2019-04-05T07:38:02.968Z,95.52
2019-04-05T07:39:02.958Z,95.15
2019-04-05T07:40:03.053Z,94.74
2019-04-05T07:41:02.957Z,95.00
2019-04-05T07:42:02.937Z,94.43
2019-04-05T07:43:02.947Z,94.23
2019-04-05T07:44:02.901Z,94.43
2019-04-05T07:45:02.889Z,94.53
2019-04-05T07:46:02.880Z,93.98
2019-04-05T07:47:02.884Z,94.49
2019-04-05T07:48:02.861Z,93.46
2019-04-05T07:49:02.881Z,93.30
2019-04-05T07:50:02.837Z,93.25
2019-04-05T07:51:02.832Z,93.35
2019-04-05T07:52:02.814Z,93.15
2019-04-05T07:53:02.827Z,93.46
2019-04-05T07:54:02.796Z,93.35
2019-04-05T07:55:02.801Z,93.46
2019-04-05T07:56:02.769Z,93.21
2019-04-05T07:57:02.760Z,93.21
2019-04-05T07:58:02.751Z,93.21
2019-04-05T07:59:02.751Z,93.21
2019-04-05T08:00:02.727Z,93.21
2019-04-05T08:01:02.735Z,92.63
2019-04-05T08:02:02.703Z,92.43
2019-04-05T08:03:02.718Z,92.74
2019-04-05T08:04:02.686Z,93.05
2019-04-05T08:05:02.674Z,92.69
2019-04-05T08:06:02.667Z,92.80
2019-04-05T08:07:02.657Z,92.49
2019-04-05T08:08:02.638Z,92.90
2019-04-05T08:09:11.638Z,92.38
2019-04-05T08:10:03.123Z,92.18
2019-04-05T08:11:02.606Z,92.90
2019-04-05T08:12:02.592Z,92.59
2019-04-05T08:13:02.582Z,92.59
2019-04-05T08:14:02.596Z,92.38
2019-04-05T08:15:02.564Z,92.38
2019-04-05T08:16:02.552Z,92.63
2019-04-05T08:17:02.590Z,92.80
2019-04-05T08:18:02.534Z,92.59
2019-04-05T08:19:02.530Z,92.43
2019-04-05T08:20:02.536Z,91.66
2019-04-05T08:21:02.520Z,91.36
2019-04-05T08:22:02.496Z,92.22
2019-04-05T08:23:02.479Z,92.80
2019-04-05T08:24:02.493Z,92.18
2019-04-05T08:25:02.466Z,91.66
2019-04-05T08:26:02.463Z,91.15
2019-04-05T08:27:02.431Z,92.53
2019-04-05T08:28:02.421Z,92.63
2019-04-05T08:29:02.409Z,92.59
2019-04-05T08:30:02.404Z,92.90
2019-04-05T08:31:02.389Z,93.31
2019-04-05T08:32:13.923Z,93.11
2019-04-05T08:33:03.359Z,93.21
2019-04-05T08:34:02.362Z,93.01
2019-04-05T08:35:02.340Z,92.38
2019-04-05T08:36:02.336Z,92.29
2019-04-05T08:37:02.324Z,91.46
2019-04-05T08:38:02.324Z,91.66
2019-04-05T08:39:02.332Z,91.66
2019-04-05T08:40:02.290Z,92.38
2019-04-05T08:41:02.277Z,92.29
2019-04-05T08:42:02.278Z,92.14
2019-04-05T08:43:02.260Z,92.03
2019-04-05T08:44:02.249Z,91.46
2019-04-05T08:45:02.279Z,91.11
2019-04-05T08:46:02.216Z,91.46
2019-04-05T08:47:02.213Z,91.36
2019-04-05T08:48:02.232Z,91.15
2019-04-05T08:49:10.581Z,91.25
2019-04-05T08:50:03.192Z,90.94
2019-04-05T08:51:02.170Z,91.19
2019-04-05T08:52:02.156Z,91.09
2019-04-05T08:53:02.195Z,91.60
2019-04-05T08:54:02.140Z,91.19
2019-04-05T08:55:02.131Z,91.46
2019-04-05T08:56:02.130Z,91.50
2019-04-05T08:57:02.099Z,91.87
2019-04-05T08:58:02.087Z,92.12
2019-04-05T08:59:02.085Z,92.69
2019-04-05T09:00:02.083Z,92.18
2019-04-05T09:01:02.067Z,92.53
2019-04-05T09:02:02.062Z,91.97
2019-04-05T09:03:02.038Z,92.12
2019-04-05T09:04:02.022Z,92.22
2019-04-05T09:05:02.040Z,91.50
2019-04-05T09:06:01.999Z,91.44
2019-04-05T09:07:01.987Z,91.54
2019-04-05T09:08:01.993Z,91.60
2019-04-05T09:09:01.976Z,92.06
2019-04-05T09:10:01.957Z,93.05
2019-04-05T09:11:01.954Z,92.43
2019-04-05T09:12:01.951Z,92.47
2019-04-05T09:13:01.924Z,92.37
2019-04-05T09:14:01.911Z,93.35
2019-04-05T09:15:01.927Z,93.15
2019-04-05T09:16:01.892Z,93.35
2019-04-05T09:17:01.896Z,93.77
2019-04-05T09:18:01.883Z,94.18
2019-04-05T09:19:01.886Z,93.35
2019-04-05T09:20:01.861Z,93.56
2019-04-05T09:21:01.834Z,93.05
2019-04-05T09:22:01.821Z,92.43
2019-04-05T09:23:01.842Z,92.74
2019-04-05T09:24:01.823Z,92.43
2019-04-05T09:25:01.811Z,92.74
2019-04-05T09:26:01.778Z,92.49
2019-04-05T09:27:01.768Z,93.31
2019-04-05T09:28:01.759Z,93.16
2019-04-05T09:29:01.767Z,93.16
2019-04-05T09:30:01.745Z,93.23
2019-04-05T09:31:01.729Z,92.92
2019-04-05T09:32:01.739Z,92.05
2019-04-05T09:33:01.701Z,91.85
2019-04-05T09:34:01.716Z,91.23
2019-04-05T09:35:01.686Z,90.92
2019-04-05T09:36:01.672Z,91.33
2019-04-05T09:37:01.658Z,90.72
2019-04-05T09:38:01.708Z,91.33
2019-04-05T09:39:01.635Z,90.81
2019-04-05T09:40:01.705Z,90.30
2019-04-05T09:41:01.673Z,89.38
2019-04-05T09:42:01.608Z,90.00
2019-04-05T09:43:01.606Z,89.89
2019-04-05T09:44:01.607Z,89.79
2019-04-05T09:45:01.572Z,89.38
2019-04-05T09:46:01.557Z,90.30
2019-04-05T09:47:01.553Z,89.58
2019-04-05T09:48:01.538Z,91.02
2019-04-05T09:49:01.524Z,90.72
2019-04-05T09:50:01.576Z,90.61
2019-04-05T09:51:01.582Z,90.61
2019-04-05T09:52:01.533Z,90.72
2019-04-05T09:53:01.483Z,90.20
2019-04-05T09:54:01.481Z,89.89
2019-04-05T09:55:01.466Z,90.41
2019-04-05T09:56:01.472Z,90.20
2019-04-05T09:57:01.448Z,89.42
2019-04-05T09:58:01.428Z,89.31
2019-04-05T09:59:01.420Z,89.52
2019-04-05T10:00:01.410Z,89.62
2019-04-05T10:01:01.394Z,89.36
2019-04-05T10:02:01.398Z,89.42
2019-04-05T10:03:01.374Z,89.62
2019-04-05T10:04:01.390Z,90.96
2019-04-05T10:05:01.357Z,91.47
2019-04-05T10:06:01.346Z,89.83
2019-04-05T10:07:01.333Z,90.08
2019-04-05T10:08:01.341Z,89.46
2019-04-05T10:09:01.307Z,91.06
2019-04-05T10:10:01.294Z,90.96
2019-04-05T10:11:01.291Z,90.28
2019-04-05T10:12:01.287Z,90.45
2019-04-05T10:13:01.291Z,89.42
2019-04-05T10:14:01.305Z,90.45
2019-04-05T10:15:01.268Z,90.24
2019-04-05T10:16:01.242Z,89.73
2019-04-05T10:17:01.219Z,89.94
2019-04-05T10:18:01.207Z,90.24
2019-04-05T10:19:01.214Z,90.41
2019-04-05T10:20:01.190Z,90.81
2019-04-05T10:21:01.176Z,90.20
2019-04-05T10:22:01.177Z,90.20
2019-04-05T10:23:01.161Z,89.54
2019-04-05T10:24:01.152Z,89.95
2019-04-05T10:25:01.183Z,89.95
2019-04-05T10:26:01.122Z,89.75
2019-04-05T10:27:01.112Z,88.51
2019-04-05T10:28:01.098Z,87.73
2019-04-05T10:29:01.095Z,87.22
2019-04-05T10:30:01.075Z,85.98
2019-04-05T10:31:01.074Z,87.52
2019-04-05T10:32:01.058Z,86.91
2019-04-05T10:33:01.043Z,87.84
2019-04-05T10:34:01.034Z,88.56
2019-04-05T10:35:01.038Z,89.38
2019-04-05T10:36:01.026Z,88.82
2019-04-05T10:37:01.003Z,89.03
2019-04-05T10:38:00.995Z,89.03
2019-04-05T10:39:00.992Z,88.92
2019-04-05T10:40:00.978Z,88.00
2019-04-05T10:41:00.973Z,87.49
2019-04-05T10:42:03.847Z,86.93
2019-04-05T10:43:00.947Z,87.13
2019-04-05T10:44:00.921Z,85.80
2019-04-05T10:45:00.914Z,85.39
2019-04-05T10:46:00.909Z,84.47
2019-04-05T10:47:00.905Z,84.84
2019-04-05T10:48:00.912Z,85.46
2019-04-05T10:49:00.868Z,87.05
2019-04-05T10:50:03.368Z,87.77
2019-04-05T10:51:00.886Z,88.39
2019-04-05T10:52:00.842Z,87.77
2019-04-05T10:53:00.852Z,86.75
2019-04-05T10:54:00.820Z,86.85
2019-04-05T10:55:00.816Z,87.37
2019-04-05T10:56:00.792Z,86.03
2019-04-05T10:57:00.782Z,85.46
2019-04-05T10:58:00.786Z,85.52
2019-04-05T10:59:00.763Z,85.93
2019-04-05T11:00:00.750Z,84.69
2019-04-05T11:01:00.747Z,85.93
2019-04-05T11:02:00.723Z,85.93
2019-04-05T11:03:00.720Z,85.62
2019-04-05T11:04:00.739Z,85.93
2019-04-05T11:05:00.694Z,86.54
2019-04-05T11:06:00.685Z,85.21
2019-04-05T11:07:00.670Z,84.28
2019-04-05T11:08:00.665Z,84.59
2019-04-05T11:09:00.653Z,83.87
2019-04-05T11:10:00.669Z,84.39
2019-04-05T11:11:00.635Z,83.77
2019-04-05T11:12:00.618Z,83.67
2019-04-05T11:13:00.612Z,84.80
2019-04-05T11:14:12.956Z,84.59
2019-04-05T11:15:01.622Z,83.77
2019-04-05T11:16:02.031Z,84.69
2019-04-05T11:17:04.475Z,85.21
2019-04-05T11:18:00.555Z,85.72
2019-04-05T11:19:02.263Z,86.13
2019-04-05T11:20:00.534Z,85.82
2019-04-05T11:21:00.547Z,83.36
2019-04-05T11:22:00.520Z,81.71
2019-04-05T11:23:00.508Z,82.47
2019-04-05T11:24:00.480Z,81.86
2019-04-05T11:25:00.477Z,82.99
2019-04-05T11:26:00.471Z,84.42
2019-04-05T11:27:00.475Z,85.04
2019-04-05T11:28:00.445Z,82.99
2019-04-05T11:29:00.458Z,84.74
2019-04-05T11:30:00.427Z,82.57
2019-04-05T11:31:00.426Z,84.12
2019-04-05T11:32:00.395Z,84.01
2019-04-05T11:33:00.437Z,82.92
2019-04-05T11:34:00.384Z,83.85
2019-04-05T11:35:00.368Z,85.08
2019-04-05T11:36:00.354Z,85.70
2019-04-05T11:37:02.812Z,84.94
2019-04-05T11:38:00.326Z,85.97
2019-04-05T11:39:00.320Z,84.74
2019-04-05T11:40:00.306Z,84.42
2019-04-05T11:41:00.314Z,83.46
2019-04-05T11:42:00.314Z,82.64
2019-04-05T11:43:00.275Z,83.36
2019-04-05T11:44:00.829Z,83.46
2019-04-05T11:45:00.257Z,84.76
2019-04-05T11:46:00.266Z,84.14
2019-04-05T11:47:00.229Z,82.60
2019-04-05T11:48:00.216Z,82.91
2019-04-05T11:49:01.316Z,82.64
2019-04-05T11:50:00.199Z,83.22
2019-04-05T11:51:00.208Z,81.92
2019-04-05T11:52:00.216Z,82.54
2019-04-05T11:53:00.208Z,81.10
2019-04-05T11:54:00.154Z,81.00
2019-04-05T11:55:00.163Z,83.26
2019-04-05T11:56:13.450Z,84.39
2019-04-05T11:57:01.147Z,82.84
2019-04-05T11:58:00.111Z,82.95
2019-04-05T11:59:00.110Z,83.26
2019-04-05T12:00:00.127Z,84.08
2019-04-05T12:01:00.144Z,84.69
2019-04-05T12:02:00.067Z,85.27
2019-04-05T12:03:00.066Z,84.25
2019-04-05T12:04:00.039Z,84.61
2019-04-05T12:05:00.030Z,84.41
2019-04-05T12:06:00.035Z,84.78
2019-04-05T12:07:00.009Z,84.27
2019-04-05T12:08:01.765Z,83.82
2019-04-05T12:09:01.370Z,81.60
2019-04-05T12:09:59.987Z,79.45
2019-04-05T12:10:59.983Z,79.45
2019-04-05T12:11:59.958Z,79.49
2019-04-05T12:12:59.959Z,80.27
2019-04-05T12:13:59.935Z,83.25
2019-04-05T12:14:59.956Z,80.31
2019-04-05T12:15:59.924Z,81.81
2019-04-05T12:16:59.902Z,82.73
2019-04-05T12:17:59.889Z,83.14
2019-04-05T12:18:59.888Z,82.83
2019-04-05T12:20:00.604Z,82.42
2019-04-05T12:21:00.731Z,80.17
2019-04-05T12:21:59.881Z,79.96
2019-04-05T12:22:59.848Z,79.90
2019-04-05T12:24:02.301Z,81.29
2019-04-05T12:25:00.548Z,80.88
2019-04-05T12:26:03.801Z,81.29
2019-04-05T12:26:59.800Z,82.12
2019-04-05T12:28:06.353Z,81.60
2019-04-05T12:29:00.783Z,81.91
2019-04-05T12:29:59.779Z,81.91
2019-04-05T12:30:59.763Z,82.63
2019-04-05T12:31:59.734Z,82.53
2019-04-05T12:33:12.769Z,81.60
2019-04-05T12:34:00.721Z,81.02
2019-04-05T12:34:59.711Z,81.34
2019-04-05T12:35:59.707Z,80.92
2019-04-05T12:36:59.679Z,79.93
2019-04-05T12:37:59.664Z,80.07
2019-04-05T12:39:03.455Z,80.38
2019-04-05T12:39:59.642Z,81.16
2019-04-05T12:40:59.638Z,83.22
2019-04-05T12:41:59.642Z,82.91
2019-04-05T12:42:59.614Z,83.53
2019-04-05T12:43:59.599Z,84.10
2019-04-05T12:44:59.609Z,81.99
2019-04-05T12:45:59.584Z,81.37
2019-04-05T12:46:59.574Z,83.32
2019-04-05T12:47:59.577Z,81.78
2019-04-05T12:48:59.567Z,81.41
2019-04-05T12:49:59.542Z,81.41
2019-04-05T12:51:01.329Z,81.92
2019-04-05T12:51:59.511Z,82.03
2019-04-05T12:52:59.501Z,82.75